sensor_id;sensor_type;location;lat;lon;timestamp;temperature;humidity
12622;DHT22;6376;48.182;-1.644;2023-04-03T00:01:00;12.40;82.90
12622;DHT22;6376;48.182;-1.644;2023-04-03T00:03:26;12.30;83.00
12622;DHT22;6376;48.182;-1.644;2023-04-03T00:05:52;12.40;83.00
12622;DHT22;6376;48.182;-1.644;2023-04-03T00:08:18;12.30;82.70
12622;DHT22;6376;48.182;-1.644;2023-04-03T00:10:43;12.30;82.90
12622;DHT22;6376;48.182;-1.644;2023-04-03T00:13:09;12.30;83.00
12622;DHT22;6376;48.182;-1.644;2023-04-03T00:15:35;12.30;83.10
12622;DHT22;6376;48.182;-1.644;2023-04-03T00:18:02;12.30;83.10
12622;DHT22;6376;48.182;-1.644;2023-04-03T00:20:28;12.30;83.10
12622;DHT22;6376;48.182;-1.644;2023-04-03T00:22:54;12.30;83.10
12622;DHT22;6376;48.182;-1.644;2023-04-03T00:25:20;12.30;83.00
12622;DHT22;6376;48.182;-1.644;2023-04-03T00:27:46;12.30;82.70
12622;DHT22;6376;48.182;-1.644;2023-04-03T00:30:16;12.30;82.60
12622;DHT22;6376;48.182;-1.644;2023-04-03T00:32:42;12.30;82.80
12622;DHT22;6376;48.182;-1.644;2023-04-03T00:35:08;12.30;83.00
12622;DHT22;6376;48.182;-1.644;2023-04-03T00:37:34;12.20;83.00
12622;DHT22;6376;48.182;-1.644;2023-04-03T00:40:00;12.20;83.00
12622;DHT22;6376;48.182;-1.644;2023-04-03T00:42:26;12.20;83.10
12622;DHT22;6376;48.182;-1.644;2023-04-03T00:47:24;12.20;83.20
12622;DHT22;6376;48.182;-1.644;2023-04-03T00:49:51;12.20;83.10
12622;DHT22;6376;48.182;-1.644;2023-04-03T00:52:21;12.20;83.10
12622;DHT22;6376;48.182;-1.644;2023-04-03T00:54:50;12.20;83.10
12622;DHT22;6376;48.182;-1.644;2023-04-03T00:57:18;12.20;83.10
12622;DHT22;6376;48.182;-1.644;2023-04-03T00:59:50;12.20;83.00
12622;DHT22;6376;48.182;-1.644;2023-04-03T01:02:17;12.20;83.00
12622;DHT22;6376;48.182;-1.644;2023-04-03T01:04:43;12.20;83.10
12622;DHT22;6376;48.182;-1.644;2023-04-03T01:09:35;12.20;82.80
12622;DHT22;6376;48.182;-1.644;2023-04-03T01:12:18;12.20;82.50
12622;DHT22;6376;48.182;-1.644;2023-04-03T01:14:45;12.20;82.80
12622;DHT22;6376;48.182;-1.644;2023-04-03T01:17:37;12.20;82.50
12622;DHT22;6376;48.182;-1.644;2023-04-03T01:25:36;12.10;82.60
12622;DHT22;6376;48.182;-1.644;2023-04-03T01:28:03;12.10;82.60
12622;DHT22;6376;48.182;-1.644;2023-04-03T01:30:35;12.10;82.70
12622;DHT22;6376;48.182;-1.644;2023-04-03T01:33:02;12.10;82.60
12622;DHT22;6376;48.182;-1.644;2023-04-03T01:35:27;12.10;82.70
12622;DHT22;6376;48.182;-1.644;2023-04-03T01:37:53;12.10;82.80
12622;DHT22;6376;48.182;-1.644;2023-04-03T01:40:19;12.10;82.70
12622;DHT22;6376;48.182;-1.644;2023-04-03T01:42:45;12.10;82.80
12622;DHT22;6376;48.182;-1.644;2023-04-03T01:45:11;12.10;82.50
12622;DHT22;6376;48.182;-1.644;2023-04-03T01:47:36;12.10;82.70
12622;DHT22;6376;48.182;-1.644;2023-04-03T01:50:02;12.00;82.60
12622;DHT22;6376;48.182;-1.644;2023-04-03T01:52:28;12.00;82.50
12622;DHT22;6376;48.182;-1.644;2023-04-03T01:54:55;12.00;82.60
12622;DHT22;6376;48.182;-1.644;2023-04-03T01:57:21;12.00;82.40
12622;DHT22;6376;48.182;-1.644;2023-04-03T01:59:46;12.00;82.30
12622;DHT22;6376;48.182;-1.644;2023-04-03T02:02:12;12.00;82.50
12622;DHT22;6376;48.182;-1.644;2023-04-03T02:04:40;12.00;82.50
12622;DHT22;6376;48.182;-1.644;2023-04-03T02:07:06;12.00;82.60
12622;DHT22;6376;48.182;-1.644;2023-04-03T02:09:31;12.00;82.70
12622;DHT22;6376;48.182;-1.644;2023-04-03T02:11:57;12.00;82.70
12622;DHT22;6376;48.182;-1.644;2023-04-03T02:14:23;12.00;82.60
12622;DHT22;6376;48.182;-1.644;2023-04-03T02:16:49;12.00;82.50
12622;DHT22;6376;48.182;-1.644;2023-04-03T02:19:15;12.00;82.40
12622;DHT22;6376;48.182;-1.644;2023-04-03T02:21:41;12.00;82.40
12622;DHT22;6376;48.182;-1.644;2023-04-03T02:24:07;12.00;82.60
12622;DHT22;6376;48.182;-1.644;2023-04-03T02:26:33;12.00;82.50
12622;DHT22;6376;48.182;-1.644;2023-04-03T02:28:58;12.00;82.30
12622;DHT22;6376;48.182;-1.644;2023-04-03T02:31:24;12.00;82.60
12622;DHT22;6376;48.182;-1.644;2023-04-03T02:33:50;12.00;82.70
12622;DHT22;6376;48.182;-1.644;2023-04-03T02:36:16;11.90;82.50
12622;DHT22;6376;48.182;-1.644;2023-04-03T02:38:42;11.90;82.60
12622;DHT22;6376;48.182;-1.644;2023-04-03T02:41:10;11.90;82.50
12622;DHT22;6376;48.182;-1.644;2023-04-03T02:43:36;11.90;82.20
12622;DHT22;6376;48.182;-1.644;2023-04-03T02:46:02;11.90;82.50
12622;DHT22;6376;48.182;-1.644;2023-04-03T02:48:28;11.90;82.40
12622;DHT22;6376;48.182;-1.644;2023-04-03T02:50:54;11.90;82.40
12622;DHT22;6376;48.182;-1.644;2023-04-03T02:53:20;11.90;82.40
12622;DHT22;6376;48.182;-1.644;2023-04-03T02:55:46;11.90;82.10
12622;DHT22;6376;48.182;-1.644;2023-04-03T02:58:12;11.90;82.40
12622;DHT22;6376;48.182;-1.644;2023-04-03T03:00:37;11.90;82.20
12622;DHT22;6376;48.182;-1.644;2023-04-03T03:03:04;11.90;82.20
12622;DHT22;6376;48.182;-1.644;2023-04-03T03:05:30;11.90;82.40
12622;DHT22;6376;48.182;-1.644;2023-04-03T03:07:55;11.90;82.20
12622;DHT22;6376;48.182;-1.644;2023-04-03T03:10:22;11.90;82.10
12622;DHT22;6376;48.182;-1.644;2023-04-03T03:12:48;11.90;82.20
12622;DHT22;6376;48.182;-1.644;2023-04-03T03:15:14;11.90;82.20
12622;DHT22;6376;48.182;-1.644;2023-04-03T03:17:41;11.90;82.30
12622;DHT22;6376;48.182;-1.644;2023-04-03T03:20:07;11.90;82.10
12622;DHT22;6376;48.182;-1.644;2023-04-03T03:22:33;11.90;82.10
12622;DHT22;6376;48.182;-1.644;2023-04-03T03:24:59;11.80;81.80
12622;DHT22;6376;48.182;-1.644;2023-04-03T03:27:26;11.80;81.80
12622;DHT22;6376;48.182;-1.644;2023-04-03T03:29:51;11.90;81.90
12622;DHT22;6376;48.182;-1.644;2023-04-03T03:32:17;11.80;81.90
12622;DHT22;6376;48.182;-1.644;2023-04-03T03:34:43;11.80;81.70
12622;DHT22;6376;48.182;-1.644;2023-04-03T03:37:08;11.80;82.10
12622;DHT22;6376;48.182;-1.644;2023-04-03T03:39:34;11.80;82.20
12622;DHT22;6376;48.182;-1.644;2023-04-03T03:42:00;11.80;82.20
12622;DHT22;6376;48.182;-1.644;2023-04-03T03:44:25;11.80;82.10
12622;DHT22;6376;48.182;-1.644;2023-04-03T03:46:51;11.80;81.90
12622;DHT22;6376;48.182;-1.644;2023-04-03T03:49:17;11.80;81.90
12622;DHT22;6376;48.182;-1.644;2023-04-03T03:51:42;11.80;81.90
12622;DHT22;6376;48.182;-1.644;2023-04-03T03:54:09;11.80;81.90
12622;DHT22;6376;48.182;-1.644;2023-04-03T03:56:35;11.80;81.90
12622;DHT22;6376;48.182;-1.644;2023-04-03T03:59:00;11.80;82.10
12622;DHT22;6376;48.182;-1.644;2023-04-03T04:01:26;11.80;81.80
12622;DHT22;6376;48.182;-1.644;2023-04-03T04:03:51;11.80;81.90
12622;DHT22;6376;48.182;-1.644;2023-04-03T04:06:19;11.80;81.80
12622;DHT22;6376;48.182;-1.644;2023-04-03T04:08:45;11.80;81.80
12622;DHT22;6376;48.182;-1.644;2023-04-03T04:11:10;11.80;81.80
12622;DHT22;6376;48.182;-1.644;2023-04-03T04:13:36;11.70;82.00
12622;DHT22;6376;48.182;-1.644;2023-04-03T04:16:02;11.70;81.90
12622;DHT22;6376;48.182;-1.644;2023-04-03T04:18:27;11.70;81.90
12622;DHT22;6376;48.182;-1.644;2023-04-03T04:20:53;11.70;82.10
12622;DHT22;6376;48.182;-1.644;2023-04-03T04:23:19;11.70;82.10
12622;DHT22;6376;48.182;-1.644;2023-04-03T04:25:46;11.70;81.90
12622;DHT22;6376;48.182;-1.644;2023-04-03T04:28:12;11.70;81.90
12622;DHT22;6376;48.182;-1.644;2023-04-03T04:30:38;11.70;81.80
12622;DHT22;6376;48.182;-1.644;2023-04-03T04:33:03;11.70;81.90
12622;DHT22;6376;48.182;-1.644;2023-04-03T04:35:29;11.60;81.70
12622;DHT22;6376;48.182;-1.644;2023-04-03T04:37:55;11.60;81.60
12622;DHT22;6376;48.182;-1.644;2023-04-03T04:40:21;11.70;81.70
12622;DHT22;6376;48.182;-1.644;2023-04-03T04:42:46;11.70;81.70
12622;DHT22;6376;48.182;-1.644;2023-04-03T04:45:12;11.60;81.60
12622;DHT22;6376;48.182;-1.644;2023-04-03T04:47:38;11.60;81.60
12622;DHT22;6376;48.182;-1.644;2023-04-03T04:50:04;11.60;81.40
12622;DHT22;6376;48.182;-1.644;2023-04-03T04:52:30;11.70;81.50
12622;DHT22;6376;48.182;-1.644;2023-04-03T04:54:55;11.60;81.60
12622;DHT22;6376;48.182;-1.644;2023-04-03T04:57:21;11.60;81.40
12622;DHT22;6376;48.182;-1.644;2023-04-03T04:59:47;11.70;81.30
12622;DHT22;6376;48.182;-1.644;2023-04-03T05:02:12;11.60;81.30
12622;DHT22;6376;48.182;-1.644;2023-04-03T05:04:38;11.60;81.30
12622;DHT22;6376;48.182;-1.644;2023-04-03T05:07:03;11.60;81.20
12622;DHT22;6376;48.182;-1.644;2023-04-03T05:09:29;11.60;81.10
12622;DHT22;6376;48.182;-1.644;2023-04-03T05:11:55;11.60;81.00
12622;DHT22;6376;48.182;-1.644;2023-04-03T05:14:21;11.60;81.10
12622;DHT22;6376;48.182;-1.644;2023-04-03T05:16:47;11.60;81.10
12622;DHT22;6376;48.182;-1.644;2023-04-03T05:19:13;11.60;81.30
12622;DHT22;6376;48.182;-1.644;2023-04-03T05:21:39;11.60;81.10
12622;DHT22;6376;48.182;-1.644;2023-04-03T05:24:04;11.60;81.10
12622;DHT22;6376;48.182;-1.644;2023-04-03T05:26:31;11.60;80.80
12622;DHT22;6376;48.182;-1.644;2023-04-03T05:28:57;11.60;81.00
12622;DHT22;6376;48.182;-1.644;2023-04-03T05:31:23;11.60;81.00
12622;DHT22;6376;48.182;-1.644;2023-04-03T05:33:48;11.60;80.80
12622;DHT22;6376;48.182;-1.644;2023-04-03T05:36:14;11.60;80.90
12622;DHT22;6376;48.182;-1.644;2023-04-03T05:38:40;11.60;80.80
12622;DHT22;6376;48.182;-1.644;2023-04-03T05:41:05;11.60;80.70
12622;DHT22;6376;48.182;-1.644;2023-04-03T05:43:31;11.60;80.60
12622;DHT22;6376;48.182;-1.644;2023-04-03T05:45:58;11.60;80.40
12622;DHT22;6376;48.182;-1.644;2023-04-03T05:48:23;11.60;80.50
12622;DHT22;6376;48.182;-1.644;2023-04-03T05:50:49;11.60;80.60
12622;DHT22;6376;48.182;-1.644;2023-04-03T05:53:22;11.60;80.50
12622;DHT22;6376;48.182;-1.644;2023-04-03T05:55:50;11.50;80.40
12622;DHT22;6376;48.182;-1.644;2023-04-03T05:58:16;11.50;80.30
12622;DHT22;6376;48.182;-1.644;2023-04-03T06:00:41;11.60;80.20
12622;DHT22;6376;48.182;-1.644;2023-04-03T06:03:07;11.50;80.30
12622;DHT22;6376;48.182;-1.644;2023-04-03T06:05:32;11.50;80.20
12622;DHT22;6376;48.182;-1.644;2023-04-03T06:07:58;11.50;81.20
12622;DHT22;6376;48.182;-1.644;2023-04-03T06:10:24;11.50;80.10
12622;DHT22;6376;48.182;-1.644;2023-04-03T06:12:50;11.50;80.00
12622;DHT22;6376;48.182;-1.644;2023-04-03T06:15:16;11.50;79.80
12622;DHT22;6376;48.182;-1.644;2023-04-03T06:17:42;11.50;80.20
12622;DHT22;6376;48.182;-1.644;2023-04-03T06:20:09;11.50;80.40
12622;DHT22;6376;48.182;-1.644;2023-04-03T06:22:35;11.50;80.30
12622;DHT22;6376;48.182;-1.644;2023-04-03T06:25:01;11.50;80.30
12622;DHT22;6376;48.182;-1.644;2023-04-03T06:27:27;11.50;80.10
12622;DHT22;6376;48.182;-1.644;2023-04-03T06:29:52;11.50;80.20
12622;DHT22;6376;48.182;-1.644;2023-04-03T06:32:18;11.50;79.80
12622;DHT22;6376;48.182;-1.644;2023-04-03T06:34:44;11.50;80.00
12622;DHT22;6376;48.182;-1.644;2023-04-03T06:37:18;11.50;79.80
12622;DHT22;6376;48.182;-1.644;2023-04-03T06:39:45;11.50;79.80
12622;DHT22;6376;48.182;-1.644;2023-04-03T06:42:11;11.50;79.80
12622;DHT22;6376;48.182;-1.644;2023-04-03T06:44:37;11.50;79.80
12622;DHT22;6376;48.182;-1.644;2023-04-03T06:47:02;11.50;80.10
12622;DHT22;6376;48.182;-1.644;2023-04-03T06:49:28;11.50;80.20
12622;DHT22;6376;48.182;-1.644;2023-04-03T06:51:54;11.50;79.20
12622;DHT22;6376;48.182;-1.644;2023-04-03T06:54:22;11.50;79.80
12622;DHT22;6376;48.182;-1.644;2023-04-03T06:56:47;11.50;79.90
12622;DHT22;6376;48.182;-1.644;2023-04-03T06:59:14;11.50;80.20
12622;DHT22;6376;48.182;-1.644;2023-04-03T07:01:40;11.50;80.00
12622;DHT22;6376;48.182;-1.644;2023-04-03T07:04:07;11.50;79.80
12622;DHT22;6376;48.182;-1.644;2023-04-03T07:06:33;11.50;79.70
12622;DHT22;6376;48.182;-1.644;2023-04-03T07:09:00;11.50;79.50
12622;DHT22;6376;48.182;-1.644;2023-04-03T07:11:26;11.50;79.50
12622;DHT22;6376;48.182;-1.644;2023-04-03T07:13:53;11.50;79.20
12622;DHT22;6376;48.182;-1.644;2023-04-03T07:16:19;11.50;79.50
12622;DHT22;6376;48.182;-1.644;2023-04-03T07:18:46;11.50;79.50
12622;DHT22;6376;48.182;-1.644;2023-04-03T07:21:12;11.50;79.50
12622;DHT22;6376;48.182;-1.644;2023-04-03T07:23:38;11.50;79.30
12622;DHT22;6376;48.182;-1.644;2023-04-03T07:26:03;11.50;78.80
12622;DHT22;6376;48.182;-1.644;2023-04-03T07:28:29;11.50;79.50
12622;DHT22;6376;48.182;-1.644;2023-04-03T07:31:02;11.50;78.70
12622;DHT22;6376;48.182;-1.644;2023-04-03T07:33:28;11.50;78.30
12622;DHT22;6376;48.182;-1.644;2023-04-03T07:35:54;11.50;78.90
12622;DHT22;6376;48.182;-1.644;2023-04-03T07:38:19;11.50;79.20
12622;DHT22;6376;48.182;-1.644;2023-04-03T07:40:49;11.50;78.70
12622;DHT22;6376;48.182;-1.644;2023-04-03T07:43:16;11.50;78.50
12622;DHT22;6376;48.182;-1.644;2023-04-03T07:45:42;11.50;79.00
12622;DHT22;6376;48.182;-1.644;2023-04-03T07:48:09;11.50;78.60
12622;DHT22;6376;48.182;-1.644;2023-04-03T07:50:35;11.50;79.30
12622;DHT22;6376;48.182;-1.644;2023-04-03T07:53:02;11.50;78.80
12622;DHT22;6376;48.182;-1.644;2023-04-03T07:55:28;11.50;78.50
12622;DHT22;6376;48.182;-1.644;2023-04-03T07:57:53;11.50;79.20
12622;DHT22;6376;48.182;-1.644;2023-04-03T08:00:19;11.60;78.70
12622;DHT22;6376;48.182;-1.644;2023-04-03T08:02:45;11.50;78.80
12622;DHT22;6376;48.182;-1.644;2023-04-03T08:05:16;11.60;78.90
12622;DHT22;6376;48.182;-1.644;2023-04-03T08:07:42;11.50;78.50
12622;DHT22;6376;48.182;-1.644;2023-04-03T08:10:08;11.60;78.40
12622;DHT22;6376;48.182;-1.644;2023-04-03T08:12:34;11.50;77.90
12622;DHT22;6376;48.182;-1.644;2023-04-03T08:15:00;11.50;77.90
12622;DHT22;6376;48.182;-1.644;2023-04-03T08:17:26;11.50;78.30
12622;DHT22;6376;48.182;-1.644;2023-04-03T08:19:52;11.50;78.00
12622;DHT22;6376;48.182;-1.644;2023-04-03T08:22:17;11.50;78.30
12622;DHT22;6376;48.182;-1.644;2023-04-03T08:24:43;11.50;77.90
12622;DHT22;6376;48.182;-1.644;2023-04-03T08:27:09;11.60;78.60
12622;DHT22;6376;48.182;-1.644;2023-04-03T08:29:36;11.50;78.30
12622;DHT22;6376;48.182;-1.644;2023-04-03T08:32:04;11.60;78.60
12622;DHT22;6376;48.182;-1.644;2023-04-03T08:34:29;11.60;78.20
12622;DHT22;6376;48.182;-1.644;2023-04-03T08:36:55;11.50;78.00
12622;DHT22;6376;48.182;-1.644;2023-04-03T08:39:21;11.50;77.70
12622;DHT22;6376;48.182;-1.644;2023-04-03T08:41:46;11.60;78.90
12622;DHT22;6376;48.182;-1.644;2023-04-03T08:49:44;11.50;77.80
12622;DHT22;6376;48.182;-1.644;2023-04-03T08:55:00;11.50;77.90
12622;DHT22;6376;48.182;-1.644;2023-04-03T08:57:40;11.50;78.00
12622;DHT22;6376;48.182;-1.644;2023-04-03T09:02:48;11.50;77.30
12622;DHT22;6376;48.182;-1.644;2023-04-03T09:08:30;11.50;77.70
12622;DHT22;6376;48.182;-1.644;2023-04-03T09:11:25;11.50;77.50
12622;DHT22;6376;48.182;-1.644;2023-04-03T09:14:07;11.50;77.50
12622;DHT22;6376;48.182;-1.644;2023-04-03T09:16:57;11.60;78.10
12622;DHT22;6376;48.182;-1.644;2023-04-03T09:22:26;11.60;77.50
12622;DHT22;6376;48.182;-1.644;2023-04-03T09:25:36;11.50;77.50
12622;DHT22;6376;48.182;-1.644;2023-04-03T09:28:01;11.60;77.70
12622;DHT22;6376;48.182;-1.644;2023-04-03T09:30:28;11.60;78.00
12622;DHT22;6376;48.182;-1.644;2023-04-03T09:32:56;11.60;78.10
12622;DHT22;6376;48.182;-1.644;2023-04-03T09:35:28;11.60;77.20
12622;DHT22;6376;48.182;-1.644;2023-04-03T09:38:18;11.60;77.70
12622;DHT22;6376;48.182;-1.644;2023-04-03T09:41:28;11.60;77.80
12622;DHT22;6376;48.182;-1.644;2023-04-03T09:43:37;11.60;77.70
12622;DHT22;6376;48.182;-1.644;2023-04-03T09:49:11;11.60;77.50
12622;DHT22;6376;48.182;-1.644;2023-04-03T09:51:37;11.60;77.60
12622;DHT22;6376;48.182;-1.644;2023-04-03T09:57:02;11.60;77.30
12622;DHT22;6376;48.182;-1.644;2023-04-03T09:59:31;11.60;77.30
12622;DHT22;6376;48.182;-1.644;2023-04-03T10:02:03;11.60;77.60
12622;DHT22;6376;48.182;-1.644;2023-04-03T10:04:42;11.70;77.70
12622;DHT22;6376;48.182;-1.644;2023-04-03T10:07:34;11.70;77.90
12622;DHT22;6376;48.182;-1.644;2023-04-03T10:10:21;11.70;77.80
12622;DHT22;6376;48.182;-1.644;2023-04-03T10:13:03;11.60;77.10
12622;DHT22;6376;48.182;-1.644;2023-04-03T10:15:39;11.70;77.70
12622;DHT22;6376;48.182;-1.644;2023-04-03T10:18:32;11.70;77.90
12622;DHT22;6376;48.182;-1.644;2023-04-03T10:21:06;11.70;77.70
12622;DHT22;6376;48.182;-1.644;2023-04-03T10:23:42;11.70;77.50
12622;DHT22;6376;48.182;-1.644;2023-04-03T10:26:37;11.70;76.80
12622;DHT22;6376;48.182;-1.644;2023-04-03T10:31:37;11.70;77.30
12622;DHT22;6376;48.182;-1.644;2023-04-03T10:34:18;11.80;77.10
12622;DHT22;6376;48.182;-1.644;2023-04-03T10:36:53;11.80;77.20
12622;DHT22;6376;48.182;-1.644;2023-04-03T10:40:29;11.80;76.60
12622;DHT22;6376;48.182;-1.644;2023-04-03T10:42:32;11.80;76.10
12622;DHT22;6376;48.182;-1.644;2023-04-03T10:48:14;12.00;77.20
12622;DHT22;6376;48.182;-1.644;2023-04-03T10:50:47;12.00;77.00
12622;DHT22;6376;48.182;-1.644;2023-04-03T10:53:39;12.30;76.30
12622;DHT22;6376;48.182;-1.644;2023-04-03T10:59:02;12.40;75.30
12622;DHT22;6376;48.182;-1.644;2023-04-03T11:01:35;12.50;75.10
12622;DHT22;6376;48.182;-1.644;2023-04-03T11:04:04;12.50;75.10
12622;DHT22;6376;48.182;-1.644;2023-04-03T11:06:42;12.50;74.80
12622;DHT22;6376;48.182;-1.644;2023-04-03T11:09:32;12.70;74.10
12622;DHT22;6376;48.182;-1.644;2023-04-03T11:12:06;12.80;73.80
12622;DHT22;6376;48.182;-1.644;2023-04-03T11:14:36;12.90;74.50
12622;DHT22;6376;48.182;-1.644;2023-04-03T11:22:48;13.20;72.80
12622;DHT22;6376;48.182;-1.644;2023-04-03T11:25:24;13.30;72.20
12622;DHT22;6376;48.182;-1.644;2023-04-03T11:30:30;13.50;71.90
12622;DHT22;6376;48.182;-1.644;2023-04-03T11:33:17;13.60;71.50
12622;DHT22;6376;48.182;-1.644;2023-04-03T11:35:49;13.60;71.20
12622;DHT22;6376;48.182;-1.644;2023-04-03T11:38:37;13.70;71.20
12622;DHT22;6376;48.182;-1.644;2023-04-03T11:41:08;13.80;70.70
12622;DHT22;6376;48.182;-1.644;2023-04-03T11:43:40;13.80;70.30
12622;DHT22;6376;48.182;-1.644;2023-04-03T11:46:08;13.80;70.60
12622;DHT22;6376;48.182;-1.644;2023-04-03T11:48:43;13.90;70.20
12622;DHT22;6376;48.182;-1.644;2023-04-03T11:53:39;13.80;70.50
12622;DHT22;6376;48.182;-1.644;2023-04-03T12:04:13;13.40;71.90
12622;DHT22;6376;48.182;-1.644;2023-04-03T12:06:41;13.30;72.10
12622;DHT22;6376;48.182;-1.644;2023-04-03T12:09:27;13.30;71.80
12622;DHT22;6376;48.182;-1.644;2023-04-03T12:11:54;13.20;72.40
12622;DHT22;6376;48.182;-1.644;2023-04-03T12:14:23;13.20;71.60
12622;DHT22;6376;48.182;-1.644;2023-04-03T12:16:52;13.20;70.70
12622;DHT22;6376;48.182;-1.644;2023-04-03T12:19:38;13.10;70.90
12622;DHT22;6376;48.182;-1.644;2023-04-03T12:22:16;13.10;71.60
12622;DHT22;6376;48.182;-1.644;2023-04-03T12:24:50;13.10;71.80
12622;DHT22;6376;48.182;-1.644;2023-04-03T12:27:21;13.00;72.00
12622;DHT22;6376;48.182;-1.644;2023-04-03T12:48:30;13.00;72.40
12622;DHT22;6376;48.182;-1.644;2023-04-03T12:50:58;13.00;72.10
12622;DHT22;6376;48.182;-1.644;2023-04-03T12:53:31;13.00;71.60
12622;DHT22;6376;48.182;-1.644;2023-04-03T12:56:29;13.00;71.50
12622;DHT22;6376;48.182;-1.644;2023-04-03T13:01:44;12.90;72.30
12622;DHT22;6376;48.182;-1.644;2023-04-03T13:04:18;12.90;72.60
12622;DHT22;6376;48.182;-1.644;2023-04-03T13:06:44;12.90;72.20
12622;DHT22;6376;48.182;-1.644;2023-04-03T13:09:24;12.90;72.70
12622;DHT22;6376;48.182;-1.644;2023-04-03T13:12:13;12.90;73.10
12622;DHT22;6376;48.182;-1.644;2023-04-03T13:14:39;12.80;73.30
12622;DHT22;6376;48.182;-1.644;2023-04-03T13:17:10;12.80;73.50
12622;DHT22;6376;48.182;-1.644;2023-04-03T13:19:38;12.80;73.50
12622;DHT22;6376;48.182;-1.644;2023-04-03T13:22:11;12.80;73.90
12622;DHT22;6376;48.182;-1.644;2023-04-03T13:24:41;12.80;74.10
12622;DHT22;6376;48.182;-1.644;2023-04-03T13:27:11;12.80;74.10
12622;DHT22;6376;48.182;-1.644;2023-04-03T13:29:38;12.80;74.10
12622;DHT22;6376;48.182;-1.644;2023-04-03T13:32:05;12.80;73.90
12622;DHT22;6376;48.182;-1.644;2023-04-03T13:34:41;12.80;74.00
12622;DHT22;6376;48.182;-1.644;2023-04-03T13:37:11;12.80;74.20
12622;DHT22;6376;48.182;-1.644;2023-04-03T13:39:44;12.80;74.10
12622;DHT22;6376;48.182;-1.644;2023-04-03T13:42:25;12.80;74.40
12622;DHT22;6376;48.182;-1.644;2023-04-03T13:45:24;12.80;73.20
12622;DHT22;6376;48.182;-1.644;2023-04-03T13:48:07;12.80;73.20
12622;DHT22;6376;48.182;-1.644;2023-04-03T13:50:33;12.80;73.30
12622;DHT22;6376;48.182;-1.644;2023-04-03T13:53:15;12.80;73.80
12622;DHT22;6376;48.182;-1.644;2023-04-03T13:55:57;12.80;74.40
12622;DHT22;6376;48.182;-1.644;2023-04-03T13:58:28;12.80;74.20
12622;DHT22;6376;48.182;-1.644;2023-04-03T14:01:09;12.80;74.20
12622;DHT22;6376;48.182;-1.644;2023-04-03T14:03:46;12.80;74.20
12622;DHT22;6376;48.182;-1.644;2023-04-03T14:06:15;12.80;74.60
12622;DHT22;6376;48.182;-1.644;2023-04-03T14:08:42;12.80;74.70
12622;DHT22;6376;48.182;-1.644;2023-04-03T14:11:17;12.80;74.40
12622;DHT22;6376;48.182;-1.644;2023-04-03T14:13:44;12.80;73.50
12622;DHT22;6376;48.182;-1.644;2023-04-03T14:16:20;12.80;73.90
12622;DHT22;6376;48.182;-1.644;2023-04-03T14:18:47;12.80;73.80
12622;DHT22;6376;48.182;-1.644;2023-04-03T14:21:15;12.80;74.80
12622;DHT22;6376;48.182;-1.644;2023-04-03T14:23:41;12.80;74.90
12622;DHT22;6376;48.182;-1.644;2023-04-03T14:26:18;12.80;75.00
12622;DHT22;6376;48.182;-1.644;2023-04-03T14:28:47;12.80;75.00
12622;DHT22;6376;48.182;-1.644;2023-04-03T14:31:14;12.80;75.00
12622;DHT22;6376;48.182;-1.644;2023-04-03T14:33:41;12.90;74.70
12622;DHT22;6376;48.182;-1.644;2023-04-03T14:38:39;12.90;74.30
12622;DHT22;6376;48.182;-1.644;2023-04-03T14:41:05;12.90;74.70
12622;DHT22;6376;48.182;-1.644;2023-04-03T14:43:30;13.00;74.30
12622;DHT22;6376;48.182;-1.644;2023-04-03T14:45:56;13.00;74.60
12622;DHT22;6376;48.182;-1.644;2023-04-03T14:48:24;13.00;74.70
12622;DHT22;6376;48.182;-1.644;2023-04-03T14:50:51;13.00;74.70
12622;DHT22;6376;48.182;-1.644;2023-04-03T14:53:18;13.10;74.70
12622;DHT22;6376;48.182;-1.644;2023-04-03T14:55:49;13.10;74.60
12622;DHT22;6376;48.182;-1.644;2023-04-03T14:58:16;13.10;73.80
12622;DHT22;6376;48.182;-1.644;2023-04-03T15:00:43;13.10;74.20
12622;DHT22;6376;48.182;-1.644;2023-04-03T15:03:20;13.10;74.40
12622;DHT22;6376;48.182;-1.644;2023-04-03T15:05:48;13.10;74.00
12622;DHT22;6376;48.182;-1.644;2023-04-03T15:08:23;13.10;74.30
12622;DHT22;6376;48.182;-1.644;2023-04-03T15:10:50;13.10;74.30
12622;DHT22;6376;48.182;-1.644;2023-04-03T15:13:18;13.10;74.50
12622;DHT22;6376;48.182;-1.644;2023-04-03T15:15:44;13.10;74.50
12622;DHT22;6376;48.182;-1.644;2023-04-03T15:18:22;13.10;74.60
12622;DHT22;6376;48.182;-1.644;2023-04-03T15:20:49;13.10;74.50
12622;DHT22;6376;48.182;-1.644;2023-04-03T15:23:16;13.10;74.70
12622;DHT22;6376;48.182;-1.644;2023-04-03T15:25:43;13.20;74.70
12622;DHT22;6376;48.182;-1.644;2023-04-03T15:28:30;13.10;74.70
12622;DHT22;6376;48.182;-1.644;2023-04-03T15:30:56;13.10;74.60
12622;DHT22;6376;48.182;-1.644;2023-04-03T15:33:22;13.10;74.70
12622;DHT22;6376;48.182;-1.644;2023-04-03T15:35:48;13.10;74.80
12622;DHT22;6376;48.182;-1.644;2023-04-03T15:38:13;13.10;74.80
12622;DHT22;6376;48.182;-1.644;2023-04-03T15:40:39;13.10;74.80
12622;DHT22;6376;48.182;-1.644;2023-04-03T15:43:06;13.10;74.70
12622;DHT22;6376;48.182;-1.644;2023-04-03T15:45:34;13.10;74.70
12622;DHT22;6376;48.182;-1.644;2023-04-03T15:48:01;13.10;74.80
12622;DHT22;6376;48.182;-1.644;2023-04-03T15:50:27;13.20;74.70
12622;DHT22;6376;48.182;-1.644;2023-04-03T15:52:53;13.20;74.50
12622;DHT22;6376;48.182;-1.644;2023-04-03T15:55:25;13.20;74.70
12622;DHT22;6376;48.182;-1.644;2023-04-03T15:57:51;13.20;74.70
12622;DHT22;6376;48.182;-1.644;2023-04-03T16:00:17;13.20;73.80
12622;DHT22;6376;48.182;-1.644;2023-04-03T16:02:45;13.20;74.40
12622;DHT22;6376;48.182;-1.644;2023-04-03T16:05:12;13.10;74.30
12622;DHT22;6376;48.182;-1.644;2023-04-03T16:07:39;13.10;74.50
12622;DHT22;6376;48.182;-1.644;2023-04-03T16:10:07;13.10;74.40
12622;DHT22;6376;48.182;-1.644;2023-04-03T16:12:33;13.10;74.70
12622;DHT22;6376;48.182;-1.644;2023-04-03T16:14:59;13.10;74.30
12622;DHT22;6376;48.182;-1.644;2023-04-03T16:17:26;13.10;74.60
12622;DHT22;6376;48.182;-1.644;2023-04-03T16:19:53;13.10;74.80
12622;DHT22;6376;48.182;-1.644;2023-04-03T16:22:19;13.10;74.80
12622;DHT22;6376;48.182;-1.644;2023-04-03T16:24:45;13.10;74.40
12622;DHT22;6376;48.182;-1.644;2023-04-03T16:27:11;13.10;74.40
12622;DHT22;6376;48.182;-1.644;2023-04-03T16:29:36;13.10;74.80
12622;DHT22;6376;48.182;-1.644;2023-04-03T16:32:03;13.10;75.00
12622;DHT22;6376;48.182;-1.644;2023-04-03T16:34:29;13.10;75.10
12622;DHT22;6376;48.182;-1.644;2023-04-03T16:36:57;13.10;75.10
12622;DHT22;6376;48.182;-1.644;2023-04-03T16:39:23;13.10;75.20
12622;DHT22;6376;48.182;-1.644;2023-04-03T16:41:48;13.10;75.20
12622;DHT22;6376;48.182;-1.644;2023-04-03T16:44:14;13.10;74.70
12622;DHT22;6376;48.182;-1.644;2023-04-03T16:46:39;13.10;74.70
12622;DHT22;6376;48.182;-1.644;2023-04-03T16:49:05;13.10;74.70
12622;DHT22;6376;48.182;-1.644;2023-04-03T16:51:31;13.10;74.30
12622;DHT22;6376;48.182;-1.644;2023-04-03T16:53:57;13.10;75.00
12622;DHT22;6376;48.182;-1.644;2023-04-03T16:56:23;13.10;75.10
12622;DHT22;6376;48.182;-1.644;2023-04-03T16:58:50;13.10;75.00
12622;DHT22;6376;48.182;-1.644;2023-04-03T17:01:18;13.10;74.90
12622;DHT22;6376;48.182;-1.644;2023-04-03T17:03:44;13.10;75.10
12622;DHT22;6376;48.182;-1.644;2023-04-03T17:06:13;13.10;75.10